Time;durP1;ratioP1;P1;durP2;ratioP2;P2;SDS_P1;SDS_P2;PMS_P1;PMS_P2;Temp;Humidity;BMP_temperature;BMP_pressure;BME280_temperature;BME280_humidity;BME280_pressure;Samples;Min_cycle;Max_cycle;Signal;HPM_P1;HPM_P2
2021/12/09 00:00:07;;;;;;;63.63;25.50;;;;;;;-1.34;76.69;100835.66;5031209;28;20024;-75
2021/12/09 00:02:33;;;;;;;67.93;25.38;;;;;;;-1.32;76.18;100833.66;5033783;28;20041;-75
2021/12/09 00:04:59;;;;;;;66.80;27.58;;;;;;;-1.32;76.76;100837.13;5033797;28;20028;-75
2021/12/09 00:07:25;;;;;;;71.30;27.40;;;;;;;-1.32;76.63;100826.59;5033631;28;20491;-75
2021/12/09 00:09:51;;;;;;;68.28;26.77;;;;;;;-1.34;76.37;100814.63;5035802;28;20048;-75
2021/12/09 00:12:17;;;;;;;68.90;28.52;;;;;;;-1.36;76.62;100813.97;5031715;28;20030;-75
2021/12/09 00:14:43;;;;;;;63.80;25.58;;;;;;;-1.32;76.80;100818.72;5041079;28;20028;-75
2021/12/09 00:17:09;;;;;;;64.95;26.48;;;;;;;-1.31;76.72;100822.16;5040224;28;20077;-75
2021/12/09 00:19:37;;;;;;;70.15;26.25;;;;;;;-1.35;76.90;100807.72;5037112;28;20029;-75
2021/12/09 00:22:07;;;;;;;67.88;26.58;;;;;;;-1.35;76.53;100797.22;5031563;28;20043;-75
2021/12/09 00:24:33;;;;;;;62.33;26.48;;;;;;;-1.33;76.81;100803.94;5029344;28;20095;-75
2021/12/09 00:26:58;;;;;;;66.45;25.70;;;;;;;-1.38;77.04;100794.94;5030999;28;20528;-75
2021/12/09 00:29:25;;;;;;;59.50;24.95;;;;;;;-1.35;76.69;100798.03;5028337;28;20068;-75
2021/12/09 00:31:51;;;;;;;67.75;25.83;;;;;;;-1.34;76.56;100791.78;5036270;28;20378;-75
2021/12/09 00:34:19;;;;;;;61.25;24.58;;;;;;;-1.33;77.11;100790.81;5034786;28;20400;-75
2021/12/09 00:36:58;;;;;;;65.75;26.48;;;;;;;-1.33;76.90;100790.81;5034812;28;20064;-76
2021/12/09 00:39:24;;;;;;;62.42;25.92;;;;;;;-1.31;76.70;100790.63;5034115;28;20099;-75
2021/12/09 00:41:50;;;;;;;64.35;26.63;;;;;;;-1.30;76.89;100792.25;5038607;28;20025;-75
2021/12/09 00:44:15;;;;;;;65.07;25.50;;;;;;;-1.27;76.66;100790.13;5032188;28;20021;-75
2021/12/09 00:46:41;;;;;;;72.07;26.70;;;;;;;-1.24;76.85;100804.75;5035320;28;20095;-76
2021/12/09 00:49:08;;;;;;;69.70;25.13;;;;;;;-1.18;76.79;100801.44;5030920;28;20477;-76
2021/12/09 00:51:33;;;;;;;70.07;25.50;;;;;;;-1.18;76.85;100801.44;5036052;28;20696;-76
2021/12/09 00:53:59;;;;;;;63.92;25.95;;;;;;;-1.15;76.52;100777.44;5036063;28;20120;-76
2021/12/09 00:56:25;;;;;;;63.40;25.92;;;;;;;-1.22;76.76;100765.97;5028758;28;20079;-76
2021/12/09 00:58:51;;;;;;;63.88;24.98;;;;;;;-1.24;76.98;100774.03;5026998;28;20065;-75
2021/12/09 01:01:17;;;;;;;63.03;24.80;;;;;;;-1.26;77.33;100777.78;5029072;28;20018;-75
2021/12/09 01:03:43;;;;;;;63.00;26.15;;;;;;;-1.28;77.20;100771.88;5035182;28;20029;-75
2021/12/09 01:06:10;;;;;;;67.35;27.52;;;;;;;-1.28;77.04;100766.63;5033979;28;20025;-75
2021/12/09 01:08:36;;;;;;;72.00;25.48;;;;;;;-1.26;77.04;100760.22;5028597;28;20036;-75
2021/12/09 01:11:05;;;;;;;60.72;24.85;;;;;;;-1.27;76.94;100770.88;5029784;28;20025;-75
2021/12/09 01:13:31;;;;;;;66.97;26.25;;;;;;;-1.27;77.16;100768.25;5030648;28;20038;-75
2021/12/09 01:15:57;;;;;;;65.75;25.70;;;;;;;-1.27;77.29;100773.53;5032267;28;20029;-75
2021/12/09 01:18:24;;;;;;;59.92;24.60;;;;;;;-1.27;77.19;100765.63;5030166;28;20029;-75
2021/12/09 01:20:50;;;;;;;67.32;24.77;;;;;;;-1.24;77.27;100754.81;5032902;28;20024;-75
2021/12/09 01:23:15;;;;;;;61.05;24.80;;;;;;;-1.26;77.29;100759.38;5034566;28;20025;-75
2021/12/09 01:25:41;;;;;;;65.20;24.73;;;;;;;-1.26;77.37;100754.13;5033251;28;20025;-75
2021/12/09 01:28:12;;;;;;;64.18;24.27;;;;;;;-1.24;77.20;100758.25;5038420;28;20112;-75
2021/12/09 01:30:37;;;;;;;59.40;23.70;;;;;;;-1.28;77.30;100754.31;5032598;28;20972;-75
2021/12/09 01:33:03;;;;;;;56.70;24.88;;;;;;;-1.30;77.58;100760.72;5031729;28;20095;-75
2021/12/09 01:35:33;;;;;;;61.33;25.17;;;;;;;-1.30;77.62;100768.59;5034333;28;20036;-75
2021/12/09 01:38:07;;;;;;;64.57;24.13;;;;;;;-1.28;77.96;100748.22;5031470;28;20025;-75
2021/12/09 01:40:32;;;;;;;60.67;24.98;;;;;;;-1.27;77.76;100741.97;5034111;28;20017;-75
2021/12/09 01:42:58;;;;;;;54.90;23.55;;;;;;;-1.25;77.48;100742.66;5030959;28;20096;-75
2021/12/09 01:45:25;;;;;;;58.38;22.98;;;;;;;-1.23;77.81;100748.56;5037695;28;20366;-75
2021/12/09 01:47:51;;;;;;;64.97;23.50;;;;;;;-1.24;77.55;100753.00;5035816;28;20480;-75
2021/12/09 01:50:17;;;;;;;60.75;23.80;;;;;;;-1.23;77.76;100752.00;5036418;28;20064;-75
2021/12/09 01:52:43;;;;;;;59.22;23.17;;;;;;;-1.26;77.88;100748.88;5038557;28;20512;-75
2021/12/09 01:55:10;;;;;;;56.25;23.17;;;;;;;-1.26;78.08;100754.13;5033701;28;20112;-75
2021/12/09 01:57:36;;;;;;;55.92;23.40;;;;;;;-1.24;77.38;100752.19;5034955;28;20104;-75
2021/12/09 02:00:11;;;;;;;53.40;22.02;;;;;;;-1.22;77.77;100734.41;5034800;28;20025;-75
2021/12/09 02:02:38;;;;;;;59.13;24.08;;;;;;;-1.24;78.07;100737.22;5037467;28;20029;-76
2021/12/09 02:05:05;;;;;;;53.80;20.85;;;;;;;-1.15;77.57;100737.16;5040520;28;20124;-75
2021/12/09 02:07:31;;;;;;;52.30;22.00;;;;;;;-1.11;78.10;100731.38;5037108;28;20116;-76
2021/12/09 02:09:56;;;;;;;54.20;23.60;;;;;;;-1.07;77.39;100742.41;5037280;28;20145;-75
2021/12/09 02:12:22;;;;;;;56.17;21.95;;;;;;;-1.06;77.30;100741.41;5035975;28;20033;-75
2021/12/09 02:14:47;;;;;;;58.22;22.60;;;;;;;-1.10;77.62;100732.19;5034713;28;20029;-75
2021/12/09 02:17:13;;;;;;;59.22;24.02;;;;;;;-1.10;77.68;100740.09;5036877;28;20033;-75
2021/12/09 02:19:43;;;;;;;58.78;21.05;;;;;;;-1.18;77.63;100745.41;5042921;28;20056;-76
2021/12/09 02:22:11;;;;;;;56.00;23.90;;;;;;;-1.19;77.54;100744.59;5039734;28;20546;-76
2021/12/09 02:24:38;;;;;;;52.22;22.17;;;;;;;-1.18;78.00;100740.97;5033819;28;20081;-75
2021/12/09 02:27:04;;;;;;;52.67;22.67;;;;;;;-1.19;78.12;100746.41;5037889;28;20432;-75
2021/12/09 02:29:29;;;;;;;57.53;22.95;;;;;;;-1.19;78.08;100736.69;5033244;28;20025;-75
2021/12/09 02:31:57;;;;;;;59.03;22.70;;;;;;;-1.16;77.92;100740.78;5032366;28;20025;-75
2021/12/09 02:34:23;;;;;;;56.08;22.50;;;;;;;-1.17;78.00;100741.78;5048484;23;20148;-55
2021/12/09 02:36:51;;;;;;;57.63;22.73;;;;;;;-1.18;78.37;100754.09;5044456;28;20024;-55
2021/12/09 02:39:16;;;;;;;54.00;22.10;;;;;;;-1.17;78.24;100757.56;5042854;28;20431;-57
2021/12/09 02:41:43;;;;;;;58.35;23.17;;;;;;;-1.16;77.88;100761.81;5042822;28;20028;-56
2021/12/09 02:44:13;;;;;;;60.50;24.08;;;;;;;-1.18;78.30;100764.63;5036796;28;20106;-54
2021/12/09 02:46:39;;;;;;;58.58;22.98;;;;;;;-1.16;78.53;100770.53;5038592;28;20090;-54
2021/12/09 02:49:17;;;;;;;59.38;21.27;;;;;;;-1.18;78.38;100769.06;5041708;28;20586;-55
2021/12/09 02:51:44;;;;;;;49.15;22.02;;;;;;;-1.12;77.86;100771.00;5040883;28;20033;-54
2021/12/09 02:54:14;;;;;;;57.00;22.50;;;;;;;-1.14;78.46;100759.84;5041604;28;20020;-54
2021/12/09 02:56:40;;;;;;;56.08;23.35;;;;;;;-1.10;78.40;100755.88;5035850;28;20471;-57
2021/12/09 02:59:08;;;;;;;60.35;23.35;;;;;;;-1.11;77.79;100757.69;5043305;28;20029;-54
2021/12/09 03:01:36;;;;;;;57.17;22.48;;;;;;;-1.09;78.47;100763.59;5037276;28;20020;-56
2021/12/09 03:04:04;;;;;;;63.28;24.85;;;;;;;-1.10;78.26;100766.38;5039938;28;20040;-54
2021/12/09 03:06:33;;;;;;;53.40;22.27;;;;;;;-1.10;78.21;100769.84;5037404;28;20087;-54
2021/12/09 03:09:03;;;;;;;59.75;23.90;;;;;;;-1.09;78.06;100757.50;5035362;28;20434;-54
2021/12/09 03:11:30;;;;;;;59.25;23.17;;;;;;;-1.09;78.58;100760.13;5037887;28;20032;-56
2021/12/09 03:13:56;;;;;;;56.15;23.08;;;;;;;-1.11;78.30;100760.31;5039443;28;20028;-54
2021/12/09 03:16:22;;;;;;;50.67;21.90;;;;;;;-1.09;77.96;100758.31;5035991;28;20036;-55
2021/12/09 03:19:02;;;;;;;61.05;22.30;;;;;;;-1.17;78.40;100768.06;5040972;28;20048;-57
2021/12/09 03:21:34;;;;;;;53.50;22.63;;;;;;;-1.14;78.68;100768.53;5039653;28;20018;-55
2021/12/09 03:24:01;;;;;;;60.58;22.50;;;;;;;-1.12;78.03;100774.44;5040925;28;20040;-55
2021/12/09 03:26:31;;;;;;;55.17;22.48;;;;;;;-1.10;78.42;100766.38;5036897;28;20036;-55
2021/12/09 03:29:00;;;;;;;60.53;22.98;;;;;;;-1.10;78.12;100761.13;5041795;28;20041;-57
2021/12/09 03:31:26;;;;;;;62.28;22.52;;;;;;;-1.09;78.59;100765.41;5041639;28;20207;-56
2021/12/09 03:33:52;;;;;;;59.25;24.67;;;;;;;-1.13;78.75;100769.38;5040652;28;20040;-54
2021/12/09 03:36:17;;;;;;;57.85;24.27;;;;;;;-1.13;78.89;100764.09;5035988;28;20623;-58
2021/12/09 03:38:43;;;;;;;53.88;21.40;;;;;;;-1.13;78.83;100769.38;5035731;28;20095;-57
2021/12/09 03:41:09;;;;;;;62.40;23.15;;;;;;;-1.12;78.89;100771.00;5038313;28;20071;-58
2021/12/09 03:43:36;;;;;;;58.80;21.92;;;;;;;-1.14;78.78;100770.34;5037493;28;20537;-55
2021/12/09 03:46:04;;;;;;;57.13;23.38;;;;;;;-1.11;78.45;100768.19;5043481;28;20268;-57
2021/12/09 03:48:30;;;;;;;52.75;21.38;;;;;;;-1.10;78.65;100769.84;5038124;28;20035;-55
2021/12/09 03:50:56;;;;;;;61.95;24.00;;;;;;;-1.09;78.57;100766.22;5035746;28;20116;-57
2021/12/09 03:53:23;;;;;;;59.15;22.80;;;;;;;-1.13;78.69;100764.09;5033629;28;20485;-58
2021/12/09 03:55:49;;;;;;;69.88;24.38;;;;;;;-1.12;78.78;100768.38;5039863;28;20087;-54
2021/12/09 03:58:16;;;;;;;55.70;23.23;;;;;;;-1.10;78.65;100763.75;5033983;28;20376;-56
2021/12/09 04:00:42;;;;;;;60.83;23.45;;;;;;;-1.12;79.12;100771.00;5039005;28;20032;-58
2021/12/09 04:03:08;;;;;;;58.65;22.08;;;;;;;-1.11;78.89;100770.81;5037551;28;20056;-57
2021/12/09 04:05:33;;;;;;;63.88;24.10;;;;;;;-1.12;79.14;100771.00;5036625;28;20033;-57
2021/12/09 04:07:59;;;;;;;60.72;22.50;;;;;;;-1.13;78.73;100770.19;5032700;28;20029;-55
2021/12/09 04:10:25;;;;;;;62.58;24.08;;;;;;;-1.14;79.04;100763.28;5031015;28;20025;-58
2021/12/09 04:12:51;;;;;;;58.67;23.27;;;;;;;-1.17;78.81;100771.53;5041669;28;20539;-57
2021/12/09 04:15:17;;;;;;;54.63;23.13;;;;;;;-1.12;78.67;100773.63;5038647;28;20037;-57
2021/12/09 04:17:42;;;;;;;61.35;23.80;;;;;;;-1.12;78.44;100771.00;5036303;28;20472;-54
2021/12/09 04:20:09;;;;;;;64.35;24.77;;;;;;;-1.16;78.92;100765.28;5037983;28;20037;-55
2021/12/09 04:22:35;;;;;;;60.38;22.33;;;;;;;-1.18;79.04;100763.81;5037270;28;20371;-57
2021/12/09 04:25:01;;;;;;;58.15;23.00;;;;;;;-1.22;78.75;100761.53;5034970;28;20520;-57
2021/12/09 04:27:27;;;;;;;55.10;21.48;;;;;;;-1.23;79.23;100770.41;5041840;28;20021;-58
2021/12/09 04:29:54;;;;;;;61.95;22.05;;;;;;;-1.23;78.97;100772.22;5034136;28;20036;-57
2021/12/09 04:32:20;;;;;;;56.70;21.73;;;;;;;-1.19;78.68;100763.00;5039830;28;20496;-57
2021/12/09 04:34:45;;;;;;;67.07;24.05;;;;;;;-1.22;78.77;100763.34;5038145;28;20040;-57
2021/12/09 04:37:11;;;;;;;62.88;24.13;;;;;;;-1.22;79.10;100755.44;5038359;28;20032;-57
2021/12/09 04:39:37;;;;;;;56.97;22.42;;;;;;;-1.19;78.58;100760.34;5040679;28;20035;-57
2021/12/09 04:42:04;;;;;;;54.55;22.25;;;;;;;-1.15;78.64;100756.38;5039679;28;20025;-56
2021/12/09 04:44:30;;;;;;;60.08;22.13;;;;;;;-1.15;78.31;100756.38;5036068;28;20080;-56
2021/12/09 04:46:56;;;;;;;60.75;22.85;;;;;;;-1.17;78.30;100757.56;5034843;28;20061;-55
2021/12/09 04:49:22;;;;;;;57.40;22.05;;;;;;;-1.20;78.74;100752.66;5039032;28;20036;-54
2021/12/09 04:51:48;;;;;;;51.20;22.33;;;;;;;-1.21;78.54;100751.81;5038588;28;20037;-58
2021/12/09 04:54:14;;;;;;;53.90;21.80;;;;;;;-1.22;78.87;100743.13;5039420;28;20025;-56
2021/12/09 04:56:41;;;;;;;55.63;21.85;;;;;;;-1.19;78.47;100739.31;5035637;28;20044;-57
2021/12/09 04:59:07;;;;;;;49.50;19.05;;;;;;;-1.23;78.54;100738.84;5034533;28;20492;-56
2021/12/09 05:01:34;;;;;;;48.78;20.55;;;;;;;-1.24;78.31;100737.22;5037277;28;20030;-54
2021/12/09 05:04:00;;;;;;;53.88;20.35;;;;;;;-1.23;78.59;100733.59;5039329;28;20029;-57
2021/12/09 05:06:26;;;;;;;46.92;19.95;;;;;;;-1.19;78.28;100736.69;5035669;28;21169;-57
2021/12/09 05:08:52;;;;;;;49.70;21.65;;;;;;;-1.20;78.59;100737.69;5039298;28;20033;-54
2021/12/09 05:13:54;;;;;;;48.10;19.15;;;;;;;-1.23;78.51;100740.66;5041785;28;20029;-56
2021/12/09 05:16:20;;;;;;;55.13;21.67;;;;;;;-1.25;78.24;100737.41;5042253;28;20377;-55
2021/12/09 05:18:45;;;;;;;50.90;20.30;;;;;;;-1.23;77.90;100738.03;5040336;28;20081;-55
2021/12/09 05:21:12;;;;;;;54.88;22.40;;;;;;;-1.30;78.23;100739.69;5041787;28;20017;-55
2021/12/09 05:23:43;;;;;;;49.13;20.88;;;;;;;-1.30;78.56;100747.59;5035914;28;20032;-54
2021/12/09 05:26:09;;;;;;;51.47;20.50;;;;;;;-1.29;78.54;100759.72;5040520;28;20025;-55
2021/12/09 05:28:36;;;;;;;48.25;20.52;;;;;;;-1.25;78.35;100761.06;5038715;28;20025;-54
2021/12/09 05:33:48;;;;;;;50.97;20.85;;;;;;;-1.24;78.35;100725.88;5042244;28;20133;-55
2021/12/09 05:36:15;;;;;;;52.30;21.25;;;;;;;-1.24;78.03;100736.41;5043830;28;20499;-54
2021/12/09 05:38:40;;;;;;;49.75;19.63;;;;;;;-1.20;78.23;100752.66;5042174;28;20492;-57
2021/12/09 05:41:06;;;;;;;53.47;20.15;;;;;;;-1.18;77.74;100764.63;5038740;28;20053;-55
2021/12/09 05:43:32;;;;;;;49.50;22.10;;;;;;;-1.19;78.01;100760.34;5043075;28;20067;-57
2021/12/09 05:45:58;;;;;;;55.00;21.92;;;;;;;-1.16;78.31;100765.28;5038899;28;20385;-58
2021/12/09 05:48:23;;;;;;;51.28;21.45;;;;;;;-1.13;78.06;100788.59;5039522;28;20029;-55
2021/12/09 05:50:49;;;;;;;48.10;20.67;;;;;;;-1.15;78.02;100792.38;5040291;28;20048;-55
2021/12/09 05:53:15;;;;;;;48.28;19.75;;;;;;;-1.15;77.90;100787.94;5040317;28;20021;-55
2021/12/09 05:55:43;;;;;;;56.35;21.88;;;;;;;-1.16;78.01;100794.19;5041965;28;20136;-56
2021/12/09 05:58:20;;;;;;;45.38;20.95;;;;;;;-1.18;77.59;100788.28;5043721;28;20078;-57
2021/12/09 06:00:47;;;;;;;47.28;20.20;;;;;;;-1.12;77.32;100795.47;5032565;28;20028;-54
2021/12/09 06:03:13;;;;;;;52.17;20.90;;;;;;;-1.22;77.55;100803.59;5042706;28;20236;-54
2021/12/09 06:05:39;;;;;;;49.30;19.98;;;;;;;-1.23;78.12;100795.88;5040649;28;20370;-54
2021/12/09 06:08:05;;;;;;;44.75;21.45;;;;;;;-1.22;78.14;100808.03;5038689;28;20032;-58
2021/12/09 06:10:34;;;;;;;56.60;21.75;;;;;;;-1.25;78.20;100813.63;5035839;28;20028;-57
2021/12/09 06:13:00;;;;;;;51.47;20.63;;;;;;;-1.25;78.18;100824.16;5036440;28;20493;-56
2021/12/09 06:15:26;;;;;;;55.72;22.73;;;;;;;-1.28;78.34;100827.91;5044082;28;20025;-58
2021/12/09 06:17:52;;;;;;;52.05;22.17;;;;;;;-1.30;78.41;100832.50;5039583;28;20124;-55
2021/12/09 06:20:17;;;;;;;49.88;21.30;;;;;;;-1.28;78.20;100845.47;5037448;28;20100;-55
2021/12/09 06:22:43;;;;;;;55.60;21.45;;;;;;;-1.33;78.62;100843.38;5036214;28;20458;-58
2021/12/09 06:25:16;;;;;;;54.72;20.67;;;;;;;-1.30;78.65;100832.50;5036522;28;20469;-57
2021/12/09 06:27:41;;;;;;;51.08;20.63;;;;;;;-1.32;78.55;100829.25;5040892;28;20075;-58
2021/12/09 06:30:07;;;;;;;55.38;21.02;;;;;;;-1.28;78.66;100840.22;5043186;28;20477;-55
2021/12/09 06:32:32;;;;;;;54.88;22.20;;;;;;;-1.31;78.37;100824.81;5038206;28;20182;-55
2021/12/09 06:34:58;;;;;;;58.10;21.70;;;;;;;-1.29;78.32;100807.03;5042630;28;20395;-54
2021/12/09 06:37:24;;;;;;;57.05;22.52;;;;;;;-1.35;78.99;100781.44;5038757;28;20025;-57
2021/12/09 06:39:49;;;;;;;55.70;21.42;;;;;;;-1.32;78.68;100763.53;5038326;28;20040;-55
2021/12/09 06:42:17;;;;;;;60.20;22.52;;;;;;;-1.29;78.52;100765.00;5033893;28;20052;-55
2021/12/09 06:44:44;;;;;;;69.43;24.42;;;;;;;-1.29;79.08;100775.50;5036162;28;20456;-56
2021/12/09 06:47:10;;;;;;;54.17;22.38;;;;;;;-1.30;79.10;100782.56;5036873;28;20028;-55
2021/12/09 06:49:36;;;;;;;52.60;20.88;;;;;;;-1.26;78.91;100790.94;5041757;28;20234;-55
2021/12/09 06:52:02;;;;;;;63.00;23.23;;;;;;;-1.23;78.61;100795.88;5038628;28;20060;-56
2021/12/09 06:54:28;;;;;;;53.80;21.55;;;;;;;-1.25;78.71;100801.31;5038343;28;20125;-57
2021/12/09 06:56:54;;;;;;;57.90;22.88;;;;;;;-1.22;78.99;100787.00;5035340;28;20111;-55
2021/12/09 06:59:19;;;;;;;57.65;22.73;;;;;;;-1.20;78.94;100787.63;5039683;28;20045;-55
2021/12/09 07:01:45;;;;;;;59.97;22.17;;;;;;;-1.19;79.04;100791.91;5032504;28;20519;-56
2021/12/09 07:04:10;;;;;;;54.65;21.67;;;;;;;-1.19;79.17;100797.16;5037613;28;20028;-55
2021/12/09 07:06:37;;;;;;;55.45;22.67;;;;;;;-1.22;78.69;100766.78;5042628;28;20361;-55
2021/12/09 07:09:04;;;;;;;53.22;21.75;;;;;;;-1.20;78.97;100748.22;5041849;28;20158;-54
2021/12/09 07:11:32;;;;;;;53.13;21.90;;;;;;;-1.23;78.95;100769.59;5044831;28;20056;-55
2021/12/09 07:13:57;;;;;;;59.03;24.70;;;;;;;-1.22;79.21;100761.53;5043188;28;20060;-55
2021/12/09 07:16:23;;;;;;;56.35;22.05;;;;;;;-1.21;79.19;100757.09;5034891;28;20029;-54
2021/12/09 07:18:49;;;;;;;51.85;21.02;;;;;;;-1.15;78.73;100751.13;5040848;28;20043;-55
2021/12/09 07:21:15;;;;;;;62.50;21.77;;;;;;;-1.12;78.93;100744.72;5040694;28;20017;-57
2021/12/09 07:23:40;;;;;;;51.80;21.48;;;;;;;-1.15;78.44;100758.19;5042806;28;20056;-58
2021/12/09 07:26:06;;;;;;;54.20;21.92;;;;;;;-1.15;78.82;100792.38;5037050;28;20032;-56
2021/12/09 07:28:32;;;;;;;61.40;22.67;;;;;;;-1.10;78.36;100774.28;5042876;28;20056;-57
2021/12/09 07:30:58;;;;;;;57.92;23.85;;;;;;;-1.12;78.81;100763.94;5055554;28;20405;-55
2021/12/09 07:33:23;;;;;;;54.17;22.08;;;;;;;-1.12;78.51;100771.81;5034947;28;20042;-57
2021/12/09 07:35:49;;;;;;;62.70;23.40;;;;;;;-1.09;78.77;100770.66;5034444;28;20036;-56
2021/12/09 07:38:14;;;;;;;65.43;21.90;;;;;;;-1.08;78.93;100767.84;5036803;28;20047;-55
2021/12/09 07:40:40;;;;;;;64.70;22.00;;;;;;;-1.07;78.44;100789.72;5036266;28;20025;-57
2021/12/09 07:43:06;;;;;;;60.65;22.55;;;;;;;-1.08;78.26;100796.78;5043978;28;20024;-56
2021/12/09 07:45:32;;;;;;;50.47;21.40;;;;;;;-1.07;78.86;100784.47;5033021;28;20032;-58
2021/12/09 07:47:58;;;;;;;64.10;23.30;;;;;;;-1.04;78.90;100803.34;5044765;28;20488;-55
2021/12/09 07:50:28;;;;;;;59.85;23.75;;;;;;;-1.00;78.77;100791.50;5037116;28;20027;-55
2021/12/09 07:52:54;;;;;;;58.97;22.08;;;;;;;-0.95;78.79;100797.06;5040769;28;20554;-58
2021/12/09 07:55:22;;;;;;;56.22;21.98;;;;;;;-0.97;78.70;100793.78;5032279;28;20100;-54
2021/12/09 07:57:48;;;;;;;65.68;24.25;;;;;;;-1.00;78.80;100791.50;5040258;28;20602;-55
2021/12/09 08:00:19;;;;;;;62.08;23.90;;;;;;;-1.01;78.64;100805.63;5039741;28;20032;-57
2021/12/09 08:02:46;;;;;;;62.67;22.42;;;;;;;-0.99;78.71;100800.19;5039259;28;20022;-57
2021/12/09 08:05:13;;;;;;;61.22;24.08;;;;;;;-1.01;78.83;100787.22;5033914;28;20548;-54
2021/12/09 08:07:41;;;;;;;58.53;22.08;;;;;;;-1.01;78.85;100792.50;5032342;28;20158;-56
2021/12/09 08:10:10;;;;;;;57.33;23.63;;;;;;;-1.00;78.75;100772.28;5031979;28;20048;-56
2021/12/09 08:12:36;;;;;;;53.00;22.17;;;;;;;-1.03;79.21;100781.31;5034891;28;20040;-56
2021/12/09 08:15:02;;;;;;;64.10;24.23;;;;;;;-1.05;79.30;100811.41;5041128;28;20381;-56
2021/12/09 08:20:05;;;;;;;63.85;24.30;;;;;;;-1.08;79.06;100804.66;5032245;28;20112;-56
2021/12/09 08:22:32;;;;;;;65.20;24.20;;;;;;;-1.08;79.30;100817.81;5033577;28;20052;-57
2021/12/09 08:24:58;;;;;;;63.83;24.15;;;;;;;-1.04;79.38;100831.47;5035803;28;20496;-58
2021/12/09 08:27:24;;;;;;;62.40;22.52;;;;;;;-1.02;79.39;100835.56;5034947;28;20040;-55
2021/12/09 08:29:50;;;;;;;62.28;25.90;;;;;;;-0.97;79.26;100838.50;5032043;28;20029;-58
2021/12/09 08:32:16;;;;;;;61.47;22.38;;;;;;;-0.97;78.96;100861.34;5034484;28;20036;-57
2021/12/09 08:34:41;;;;;;;63.85;24.70;;;;;;;-1.00;79.27;100851.97;5034564;28;20028;-59
2021/12/09 08:37:07;;;;;;;59.17;24.20;;;;;;;-1.01;79.18;100829.31;5041471;28;20035;-55
2021/12/09 08:39:33;;;;;;;64.40;25.52;;;;;;;-0.99;79.32;100858.06;5038451;28;20071;-55
2021/12/09 08:41:58;;;;;;;66.03;24.08;;;;;;;-0.98;79.34;100865.78;5038569;28;20058;-56
2021/12/09 08:44:24;;;;;;;61.03;24.83;;;;;;;-0.95;79.73;100847.03;5035701;28;20187;-56
2021/12/09 08:46:49;;;;;;;70.80;25.80;;;;;;;-0.97;79.79;100800.84;5040434;28;20511;-54
2021/12/09 08:49:15;;;;;;;67.88;27.77;;;;;;;-0.97;79.52;100780.63;5061101;23;20056;-72
2021/12/09 08:51:41;;;;;;;68.50;21.17;;;;;;;-0.96;79.48;100798.03;5038291;28;20036;-72
2021/12/09 08:54:07;;;;;;;67.05;24.70;;;;;;;-0.95;79.82;100820.72;5039998;28;20095;-72
2021/12/09 08:56:34;;;;;;;64.25;24.30;;;;;;;-0.96;79.79;100813.00;5037199;28;20060;-72
2021/12/09 08:59:03;;;;;;;68.80;23.30;;;;;;;-0.94;79.62;100821.53;5043719;28;20053;-72
2021/12/09 09:01:28;;;;;;;62.47;24.70;;;;;;;-0.93;79.84;100831.88;5036605;28;20070;-72
2021/12/09 09:03:54;;;;;;;64.25;24.92;;;;;;;-0.92;79.92;100824.81;5044224;28;20052;-72
2021/12/09 09:06:20;;;;;;;65.78;25.48;;;;;;;-0.89;79.89;100813.16;5045454;28;20550;-72
2021/12/09 09:08:46;;;;;;;75.00;23.73;;;;;;;-0.84;79.48;100816.09;5041477;28;20025;-72
2021/12/09 09:11:11;;;;;;;70.10;24.45;;;;;;;-0.84;79.78;100808.19;5035977;28;20039;-72
2021/12/09 09:13:37;;;;;;;67.13;24.88;;;;;;;-0.81;79.50;100800.78;5041988;28;20031;-72
2021/12/09 09:16:03;;;;;;;66.00;23.55;;;;;;;-0.79;79.58;100790.06;5037945;28;20477;-71
2021/12/09 09:18:28;;;;;;;62.17;23.00;;;;;;;-0.77;79.29;100782.81;5044249;28;20070;-71
2021/12/09 09:20:54;;;;;;;57.85;23.08;;;;;;;-0.79;79.62;100788.25;5034213;28;20040;-72
2021/12/09 09:23:22;;;;;;;68.70;24.00;;;;;;;-0.80;80.05;100791.88;5040720;28;20033;-72
2021/12/09 09:25:48;;;;;;;65.88;25.27;;;;;;;-0.77;79.48;100785.47;5042688;28;20432;-72
2021/12/09 09:28:14;;;;;;;65.47;24.80;;;;;;;-0.75;79.84;100783.47;5044512;28;20029;-71
2021/12/09 09:30:45;;;;;;;62.88;24.40;;;;;;;-0.72;79.45;100780.47;5036722;28;20580;-72
2021/12/09 09:33:13;;;;;;;64.30;22.83;;;;;;;-0.70;79.80;100783.78;5038648;28;20035;-71
2021/12/09 09:35:40;;;;;;;69.97;23.90;;;;;;;-0.71;79.79;100785.59;5042387;28;20609;-71
2021/12/09 09:38:06;;;;;;;64.28;25.42;;;;;;;-0.70;79.80;100775.91;5039683;28;20120;-71
2021/12/09 09:40:45;;;;;;;63.08;23.50;;;;;;;-0.70;79.48;100779.34;5040719;28;20051;-71
2021/12/09 09:43:27;;;;;;;60.17;22.67;;;;;;;-0.67;79.68;100771.09;5035037;28;20032;-72
2021/12/09 09:45:55;;;;;;;58.30;22.55;;;;;;;-0.62;79.34;100770.56;5040404;28;20037;-71
2021/12/09 09:48:21;;;;;;;63.08;22.80;;;;;;;-0.60;79.66;100787.00;5038947;28;20404;-72
2021/12/09 09:50:47;;;;;;;67.43;23.52;;;;;;;-0.61;79.33;100775.66;5039773;28;20024;-72
2021/12/09 09:53:12;;;;;;;61.78;23.27;;;;;;;-0.61;79.33;100777.47;5041654;28;20021;-72
2021/12/09 09:55:38;;;;;;;61.13;23.17;;;;;;;-0.63;79.55;100761.03;5039270;28;20028;-72
2021/12/09 09:58:04;;;;;;;60.72;21.90;;;;;;;-0.63;79.42;100763.66;5038573;28;20036;-72
2021/12/09 10:00:30;;;;;;;59.72;23.13;;;;;;;-0.68;79.67;100773.91;5035478;28;20029;-72
2021/12/09 10:02:59;;;;;;;55.83;22.38;;;;;;;-0.68;79.59;100768.66;5034082;28;20037;-71
2021/12/09 10:05:35;;;;;;;62.58;24.77;;;;;;;-0.66;79.26;100772.72;5037823;28;20078;-72
2021/12/09 10:08:02;;;;;;;67.28;22.75;;;;;;;-0.66;79.49;100785.06;5038754;28;20053;-71
2021/12/09 10:10:28;;;;;;;60.78;22.67;;;;;;;-0.67;79.27;100760.56;5036190;28;20082;-71
2021/12/09 10:13:03;;;;;;;66.63;22.90;;;;;;;-0.68;79.64;100758.94;5038535;28;20451;-71
2021/12/09 10:15:55;;;;;;;63.85;23.05;;;;;;;-0.68;79.69;100766.00;5040271;28;20060;-71
2021/12/09 10:18:42;;;;;;;54.80;21.85;;;;;;;-0.64;79.92;100767.28;5035278;28;20048;-72
2021/12/09 10:21:10;;;;;;;62.47;24.15;;;;;;;-0.57;79.91;100765.59;5037694;28;20061;-72
2021/12/09 10:23:35;;;;;;;64.95;23.73;;;;;;;-0.56;79.43;100774.31;5034188;28;20029;-72
2021/12/09 10:26:15;;;;;;;57.83;23.30;;;;;;;-0.56;79.58;100766.41;5036179;28;20484;-72
2021/12/09 10:28:47;;;;;;;65.95;23.67;;;;;;;-0.53;79.75;100763.44;5036861;28;20117;-72
2021/12/09 10:31:16;;;;;;;58.65;24.25;;;;;;;-0.50;79.80;100755.19;5033768;28;20508;-72
2021/12/09 10:34:10;;;;;;;61.58;23.27;;;;;;;-0.53;79.81;100759.00;5034109;28;20138;-71
2021/12/09 10:36:42;;;;;;;59.60;21.95;;;;;;;-0.46;79.22;100746.78;5031612;28;20040;-71
2021/12/09 10:39:53;;;;;;;66.63;25.48;;;;;;;-0.48;79.70;100747.94;5034642;28;20029;-72
2021/12/09 10:42:32;;;;;;;59.58;21.63;;;;;;;-0.40;79.53;100756.59;5023673;28;20496;-72
2021/12/09 10:45:02;;;;;;;63.63;24.10;;;;;;;-0.37;79.08;100750.97;5040162;28;20083;-72
2021/12/09 10:47:59;;;;;;;60.17;23.15;;;;;;;-0.40;79.12;100740.78;5035516;28;20108;-72
2021/12/09 10:50:31;;;;;;;58.13;23.33;;;;;;;-0.37;79.20;100743.06;5039636;28;20025;-72
2021/12/09 10:53:30;;;;;;;60.92;22.85;;;;;;;-0.38;79.22;100765.13;5035777;28;20053;-72
2021/12/09 10:55:56;;;;;;;59.08;24.17;;;;;;;-0.32;78.87;100764.44;5031650;28;20085;-72
2021/12/09 10:58:31;;;;;;;57.95;23.13;;;;;;;-0.30;78.78;100766.88;5038245;28;20040;-72
2021/12/09 11:01:04;;;;;;;65.60;24.58;;;;;;;-0.34;78.88;100770.88;5035022;28;20024;-72
2021/12/09 11:03:41;;;;;;;61.65;24.55;;;;;;;-0.32;78.90;100777.59;5039320;28;20033;-72
2021/12/09 11:06:20;;;;;;;67.80;24.48;;;;;;;-0.33;78.79;100767.25;5035174;28;20033;-72
2021/12/09 11:08:57;;;;;;;64.93;25.95;;;;;;;-0.37;78.91;100761.50;5037455;28;20024;-72
2021/12/09 11:11:33;;;;;;;61.25;24.75;;;;;;;-0.36;78.65;100757.91;5035653;28;20025;-73
2021/12/09 11:14:07;;;;;;;68.18;24.48;;;;;;;-0.33;78.56;100775.97;5035530;28;20033;-72
2021/12/09 11:16:37;;;;;;;59.53;22.73;;;;;;;-0.35;78.82;100779.78;5036874;28;20021;-72
2021/12/09 11:19:10;;;;;;;66.40;24.42;;;;;;;-0.33;78.87;100775.16;5033253;28;20033;-72